Time;durP1;ratioP1;P1;durP2;ratioP2;P2;SDS_P1;SDS_P2;PMS_P1;PMS_P2;Temp;Humidity;BMP_temperature;BMP_pressure;BME280_temperature;BME280_humidity;BME280_pressure;Samples;Min_cycle;Max_cycle;Signal;HPM_P1;HPM_P2
2023/12/13 00:02:14;;;;;;;15.52;7.43;;;8.80;91.10;;;;;;5005484;28;20121;-78
2023/12/13 00:04:40;;;;;;;15.88;8.05;;;8.80;91.10;;;;;;4988112;28;20075;-78
2023/12/13 00:07:07;;;;;;;15.63;7.32;;;8.80;91.10;;;;;;5000496;28;20049;-77
2023/12/13 00:09:34;;;;;;;16.47;8.17;;;8.80;91.00;;;;;;4990831;28;20053;-78
2023/12/13 00:12:01;;;;;;;17.30;8.52;;;8.80;91.00;;;;;;4989630;28;20735;-77
2023/12/13 00:14:30;;;;;;;17.75;8.20;;;8.80;91.10;;;;;;5019790;28;20141;-78
2023/12/13 00:16:56;;;;;;;16.90;8.32;;;8.80;91.10;;;;;;4989357;28;20057;-78
2023/12/13 00:19:23;;;;;;;16.85;8.02;;;8.80;91.00;;;;;;5005444;28;20059;-77
2023/12/13 00:21:50;;;;;;;20.93;9.23;;;8.80;91.00;;;;;;4984015;28;20534;-78
2023/12/13 00:24:17;;;;;;;19.50;8.35;;;8.80;91.00;;;;;;5003536;28;20349;-77
2023/12/13 00:26:44;;;;;;;18.80;8.55;;;8.80;91.00;;;;;;4987263;28;20747;-78
2023/12/13 00:29:11;;;;;;;19.05;8.88;;;8.80;91.00;;;;;;5017831;28;20524;-77
2023/12/13 00:31:39;;;;;;;20.52;8.93;;;8.80;91.10;;;;;;4995943;28;20439;-77
2023/12/13 00:34:06;;;;;;;17.20;8.57;;;8.80;91.10;;;;;;4986953;28;20129;-77
2023/12/13 00:36:33;;;;;;;18.25;8.65;;;8.80;91.10;;;;;;4988048;28;20362;-77
2023/12/13 00:39:00;;;;;;;19.00;8.60;;;8.80;91.10;;;;;;5000122;28;20058;-77
2023/12/13 00:41:27;;;;;;;18.75;8.70;;;8.80;91.10;;;;;;4989120;28;20055;-77
2023/12/13 00:43:53;;;;;;;16.05;7.53;;;8.80;91.10;;;;;;4986219;28;20133;-77
2023/12/13 00:46:22;;;;;;;18.07;8.60;;;8.80;91.10;;;;;;5005873;28;20582;-77
2023/12/13 00:48:50;;;;;;;18.25;8.57;;;8.80;91.10;;;;;;4971387;28;20303;-77
2023/12/13 00:51:18;;;;;;;19.83;9.07;;;8.80;91.10;;;;;;4999301;28;20131;-77
2023/12/13 00:53:45;;;;;;;19.38;9.13;;;8.80;91.10;;;;;;5020089;28;20046;-77
2023/12/13 00:56:12;;;;;;;20.63;9.73;;;8.80;91.10;;;;;;4983892;28;20050;-78
2023/12/13 00:58:39;;;;;;;21.13;10.03;;;8.80;91.10;;;;;;5002326;28;20562;-78
2023/12/13 01:01:07;;;;;;;21.27;10.18;;;8.80;91.10;;;;;;4987613;28;20738;-77
2023/12/13 01:03:34;;;;;;;21.90;10.50;;;8.80;91.10;;;;;;5003897;28;20060;-77
2023/12/13 01:06:02;;;;;;;23.10;10.63;;;8.80;91.10;;;;;;5003440;28;20128;-77
2023/12/13 01:08:29;;;;;;;21.85;10.35;;;8.80;91.10;;;;;;4998090;28;20061;-77
2023/12/13 01:10:56;;;;;;;22.20;11.10;;;8.80;91.00;;;;;;5004256;28;20061;-77
2023/12/13 01:13:22;;;;;;;20.55;9.77;;;8.80;91.00;;;;;;5007053;28;20258;-77
2023/12/13 01:15:49;;;;;;;22.83;10.73;;;8.80;91.00;;;;;;4999741;28;20495;-77
2023/12/13 01:18:16;;;;;;;19.77;10.02;;;8.80;90.90;;;;;;4987931;28;20406;-77
2023/12/13 01:20:43;;;;;;;19.42;9.48;;;8.80;91.00;;;;;;4986533;28;20511;-78
2023/12/13 01:23:12;;;;;;;19.67;9.33;;;8.80;91.00;;;;;;5002589;28;20133;-77
2023/12/13 01:25:39;;;;;;;16.88;7.85;;;8.80;91.00;;;;;;4984866;28;20288;-78
2023/12/13 01:28:05;;;;;;;19.35;9.00;;;8.70;91.00;;;;;;4987149;28;20065;-77
2023/12/13 01:30:32;;;;;;;21.05;9.20;;;8.70;90.90;;;;;;5005606;28;20061;-77
2023/12/13 01:33:02;;;;;;;19.65;9.32;;;8.80;91.00;;;;;;4991166;28;20050;-77
2023/12/13 01:35:29;;;;;;;21.87;9.53;;;8.70;90.90;;;;;;5008159;28;20473;-77
2023/12/13 01:37:56;;;;;;;19.33;8.82;;;8.70;91.00;;;;;;4988197;28;20274;-77
2023/12/13 01:40:24;;;;;;;16.83;8.15;;;8.80;91.00;;;;;;5008573;28;20065;-77
2023/12/13 01:42:51;;;;;;;17.35;8.20;;;8.80;91.00;;;;;;5008190;28;20050;-77
2023/12/13 01:45:18;;;;;;;17.30;8.00;;;8.80;91.00;;;;;;4988076;28;20064;-77
2023/12/13 01:47:45;;;;;;;15.67;7.90;;;8.70;90.90;;;;;;4981775;28;20054;-77
2023/12/13 01:50:13;;;;;;;14.85;6.53;;;8.70;91.00;;;;;;4987503;28;20251;-77
2023/12/13 01:52:39;;;;;;;13.50;7.20;;;8.70;91.00;;;;;;5008077;28;20051;-78
2023/12/13 01:55:11;;;;;;;14.98;6.75;;;8.70;91.00;;;;;;5003879;28;20602;-77
2023/12/13 01:57:40;;;;;;;14.05;6.25;;;8.70;91.00;;;;;;4977236;28;20125;-78
2023/12/13 02:00:08;;;;;;;13.87;5.83;;;8.70;91.00;;;;;;5005571;28;20078;-78
2023/12/13 02:02:37;;;;;;;13.50;5.57;;;8.70;91.00;;;;;;5004667;28;20360;-77
2023/12/13 02:05:08;;;;;;;10.75;4.97;;;8.70;90.90;;;;;;5009802;28;20056;-77
2023/12/13 02:07:35;;;;;;;9.60;3.97;;;8.70;91.00;;;;;;5006575;28;20573;-77
2023/12/13 02:10:02;;;;;;;8.82;4.43;;;8.70;91.00;;;;;;5024514;28;20046;-77
2023/12/13 02:12:29;;;;;;;9.73;4.30;;;8.70;90.90;;;;;;4990611;28;20057;-77
2023/12/13 02:14:58;;;;;;;9.75;4.60;;;8.60;90.80;;;;;;4991069;28;20246;-77
2023/12/13 02:17:24;;;;;;;10.20;4.72;;;8.60;90.80;;;;;;5001331;28;20054;-77
2023/12/13 02:19:51;;;;;;;10.77;4.65;;;8.60;90.80;;;;;;5002729;28;20061;-77
2023/12/13 02:22:19;;;;;;;13.52;4.95;;;8.60;90.90;;;;;;5004172;28;20050;-78
2023/12/13 02:24:49;;;;;;;10.47;4.70;;;8.60;90.90;;;;;;5005291;28;20068;-77
2023/12/13 02:27:16;;;;;;;10.48;5.00;;;8.60;90.90;;;;;;5004994;28;20523;-77
2023/12/13 02:29:47;;;;;;;11.40;5.20;;;8.60;90.80;;;;;;4991338;28;20069;-77
2023/12/13 02:32:14;;;;;;;9.73;4.68;;;8.60;90.90;;;;;;5001958;28;20058;-77
2023/12/13 02:34:42;;;;;;;10.48;5.10;;;8.60;90.90;;;;;;4988887;28;20050;-77
2023/12/13 02:37:08;;;;;;;12.53;5.07;;;8.60;90.90;;;;;;5006052;28;20050;-77
2023/12/13 02:39:37;;;;;;;11.85;4.93;;;8.60;91.00;;;;;;5000513;28;20783;-77
2023/12/13 02:42:04;;;;;;;9.38;4.97;;;8.60;90.90;;;;;;5006302;28;20057;-77
2023/12/13 02:44:31;;;;;;;10.70;4.88;;;8.60;91.00;;;;;;4985380;28;20119;-77
2023/12/13 02:46:59;;;;;;;11.10;5.30;;;8.60;91.00;;;;;;4984992;28;20057;-77
2023/12/13 02:49:26;;;;;;;11.47;4.80;;;8.60;90.90;;;;;;4988817;28;20572;-77
2023/12/13 02:51:53;;;;;;;11.63;5.10;;;8.60;90.90;;;;;;4990400;28;20440;-77
2023/12/13 02:54:20;;;;;;;13.25;5.45;;;8.60;90.90;;;;;;4989492;28;20603;-77
2023/12/13 02:56:48;;;;;;;9.98;5.28;;;8.60;91.00;;;;;;5002895;28;20487;-77
2023/12/13 02:59:15;;;;;;;10.80;5.05;;;8.60;91.00;;;;;;4990419;28;20061;-77
2023/12/13 03:01:42;;;;;;;11.10;5.50;;;8.60;91.00;;;;;;4990925;28;20050;-77
2023/12/13 03:04:09;;;;;;;10.07;4.93;;;8.60;91.00;;;;;;5006790;28;20290;-77
2023/12/13 03:06:35;;;;;;;10.85;5.47;;;8.60;91.10;;;;;;5005410;28;20595;-77
2023/12/13 03:09:02;;;;;;;10.68;5.05;;;8.60;91.00;;;;;;5007615;28;20527;-77
2023/12/13 03:11:30;;;;;;;9.73;4.55;;;8.60;91.10;;;;;;4985897;28;20050;-77
2023/12/13 03:13:58;;;;;;;9.33;4.87;;;8.60;91.10;;;;;;5002817;28;20460;-77
2023/12/13 03:16:25;;;;;;;10.60;4.80;;;8.60;91.10;;;;;;5003543;28;20281;-77
2023/12/13 03:18:52;;;;;;;10.48;5.50;;;8.60;91.00;;;;;;5006256;28;20054;-77
2023/12/13 03:21:19;;;;;;;13.00;5.63;;;8.60;91.10;;;;;;5005283;28;20058;-77
2023/12/13 03:23:46;;;;;;;10.80;5.30;;;8.60;91.00;;;;;;4989868;28;20076;-77
2023/12/13 03:26:13;;;;;;;11.27;4.90;;;8.60;91.00;;;;;;4984941;28;20050;-77
2023/12/13 03:28:40;;;;;;;10.73;5.50;;;8.60;91.00;;;;;;5005109;28;20267;-78
2023/12/13 03:31:11;;;;;;;11.02;5.25;;;8.60;91.10;;;;;;5003911;28;20072;-78
2023/12/13 03:33:38;;;;;;;12.40;5.05;;;8.60;91.00;;;;;;4985690;28;20050;-77
2023/12/13 03:36:05;;;;;;;10.77;4.60;;;8.60;91.00;;;;;;4989275;28;20046;-77
2023/12/13 03:38:33;;;;;;;9.87;5.10;;;8.60;91.00;;;;;;5003759;28;20047;-77
2023/12/13 03:40:59;;;;;;;10.23;5.03;;;8.60;91.00;;;;;;5008367;28;20493;-77
2023/12/13 03:43:26;;;;;;;11.07;4.85;;;8.60;91.00;;;;;;4986681;28;20133;-77
2023/12/13 03:45:53;;;;;;;11.85;5.20;;;8.60;91.00;;;;;;5005589;28;20419;-77
2023/12/13 03:48:21;;;;;;;9.90;4.70;;;8.60;91.00;;;;;;4986508;28;20145;-77
2023/12/13 03:50:48;;;;;;;10.73;5.13;;;8.60;91.10;;;;;;4985656;28;20075;-77
2023/12/13 03:53:15;;;;;;;9.85;5.10;;;8.60;91.00;;;;;;4986046;28;20270;-77
2023/12/13 03:55:42;;;;;;;11.93;5.68;;;8.60;91.00;;;;;;5001528;28;20050;-77
2023/12/13 03:58:09;;;;;;;10.02;5.25;;;8.60;91.00;;;;;;4984006;28;20100;-77
2023/12/13 04:00:36;;;;;;;13.45;6.03;;;8.60;91.10;;;;;;4988473;28;20066;-77
2023/12/13 04:03:03;;;;;;;12.50;5.93;;;8.60;91.10;;;;;;5004146;28;20050;-76
2023/12/13 04:05:31;;;;;;;15.35;6.47;;;8.60;91.10;;;;;;5002790;28;20289;-77
2023/12/13 04:07:58;;;;;;;13.07;6.07;;;8.60;91.10;;;;;;5017705;28;20500;-77
2023/12/13 04:10:26;;;;;;;14.57;6.32;;;8.60;91.10;;;;;;5004775;28;20593;-77
2023/12/13 04:12:53;;;;;;;11.38;5.63;;;8.50;91.10;;;;;;5008372;28;20089;-77
2023/12/13 04:15:19;;;;;;;14.47;5.87;;;8.50;91.00;;;;;;4982042;28;20122;-77
2023/12/13 04:17:45;;;;;;;15.23;7.40;;;8.50;91.10;;;;;;4988797;28;20316;-77
2023/12/13 04:20:12;;;;;;;13.65;6.55;;;8.50;91.10;;;;;;5002798;28;20058;-77
2023/12/13 04:22:40;;;;;;;14.90;7.10;;;8.50;91.10;;;;;;5006617;28;20050;-77
2023/12/13 04:25:08;;;;;;;13.38;7.05;;;8.60;91.10;;;;;;4984016;28;20069;-77
2023/12/13 04:27:35;;;;;;;14.13;7.03;;;8.60;91.20;;;;;;4985112;28;20480;-77
2023/12/13 04:30:02;;;;;;;14.43;6.82;;;8.60;91.20;;;;;;4987199;28;20180;-77
2023/12/13 04:32:29;;;;;;;14.30;7.25;;;8.60;91.20;;;;;;4984210;28;20193;-77
2023/12/13 04:34:56;;;;;;;15.85;7.20;;;8.60;91.20;;;;;;4990658;28;20050;-77
2023/12/13 04:37:23;;;;;;;14.32;7.95;;;8.60;91.20;;;;;;4983359;28;20595;-77
2023/12/13 04:39:51;;;;;;;15.23;7.37;;;8.60;91.20;;;;;;4987702;28;20480;-77
2023/12/13 04:42:18;;;;;;;15.10;8.00;;;8.60;91.20;;;;;;4989986;28;20147;-77
2023/12/13 04:44:45;;;;;;;16.27;8.10;;;8.60;91.10;;;;;;5003761;28;20050;-77
2023/12/13 04:47:12;;;;;;;14.73;8.20;;;8.60;91.10;;;;;;4984960;28;20141;-77
2023/12/13 04:49:39;;;;;;;16.98;8.00;;;8.60;91.10;;;;;;4985658;28;20475;-77
2023/12/13 04:52:06;;;;;;;16.20;7.93;;;8.60;91.20;;;;;;5005224;28;20055;-77
2023/12/13 04:54:35;;;;;;;15.75;7.65;;;8.60;91.10;;;;;;5002673;28;20064;-77
2023/12/13 04:57:04;;;;;;;18.35;8.45;;;8.60;91.10;;;;;;5006976;28;20050;-77
2023/12/13 04:59:32;;;;;;;17.75;8.85;;;8.60;91.10;;;;;;5004327;28;20053;-77
2023/12/13 05:01:59;;;;;;;18.98;8.63;;;8.60;91.10;;;;;;4987354;28;20061;-77
2023/12/13 05:04:25;;;;;;;16.13;8.23;;;8.60;91.10;;;;;;5006169;28;20065;-77
2023/12/13 05:06:52;;;;;;;18.60;9.02;;;8.60;91.20;;;;;;4987497;28;20054;-77
2023/12/13 05:09:19;;;;;;;15.82;9.00;;;8.60;91.20;;;;;;4987218;28;20046;-77
2023/12/13 05:11:46;;;;;;;19.40;10.02;;;8.60;91.20;;;;;;5004620;28;20054;-77
2023/12/13 05:14:14;;;;;;;19.17;9.57;;;8.60;91.20;;;;;;4987460;28;20054;-77
2023/12/13 05:16:41;;;;;;;17.07;8.73;;;8.60;91.20;;;;;;5006442;28;20056;-77
2023/12/13 05:19:08;;;;;;;16.60;8.68;;;8.60;91.20;;;;;;5016940;28;20489;-77
2023/12/13 05:21:35;;;;;;;18.08;8.65;;;8.60;91.20;;;;;;5004317;28;20480;-77
2023/12/13 05:24:02;;;;;;;17.88;8.73;;;8.60;91.20;;;;;;4989237;28;20440;-77
2023/12/13 05:26:29;;;;;;;16.80;8.90;;;8.60;91.20;;;;;;5007210;28;20058;-77
2023/12/13 05:28:56;;;;;;;19.73;9.03;;;8.60;91.20;;;;;;4999525;28;20059;-77
2023/12/13 05:31:24;;;;;;;15.85;8.18;;;8.60;91.20;;;;;;4984296;28;20687;-77
2023/12/13 05:33:51;;;;;;;17.75;8.52;;;8.60;91.20;;;;;;5003802;28;20137;-77
2023/12/13 05:36:18;;;;;;;18.23;8.40;;;8.50;91.20;;;;;;4983180;28;20078;-77
2023/12/13 05:38:45;;;;;;;16.65;8.30;;;8.50;91.10;;;;;;5003647;28;20051;-77
2023/12/13 05:41:11;;;;;;;16.27;8.30;;;8.50;91.10;;;;;;4986106;28;20047;-77
2023/12/13 05:43:38;;;;;;;19.83;9.02;;;8.50;91.10;;;;;;5005760;28;20047;-77
2023/12/13 05:46:06;;;;;;;18.73;9.23;;;8.50;91.10;;;;;;5006755;28;20499;-77
2023/12/13 05:48:34;;;;;;;17.65;8.25;;;8.50;91.10;;;;;;4986070;28;20050;-77
2023/12/13 05:51:01;;;;;;;16.60;8.57;;;8.50;91.10;;;;;;5001649;28;20047;-77
2023/12/13 05:53:28;;;;;;;19.00;9.10;;;8.50;91.10;;;;;;5002829;28;20274;-77
2023/12/13 05:55:55;;;;;;;16.83;8.23;;;8.50;91.10;;;;;;5003080;28;20061;-77
2023/12/13 05:58:22;;;;;;;16.70;8.30;;;8.50;91.20;;;;;;5004656;28;20385;-77
2023/12/13 06:00:50;;;;;;;19.10;8.90;;;8.50;91.10;;;;;;5002531;28;20134;-77
2023/12/13 06:03:17;;;;;;;17.17;8.30;;;8.50;91.20;;;;;;5004769;28;20066;-77
2023/12/13 06:05:45;;;;;;;17.50;8.25;;;8.50;91.20;;;;;;5000148;28;20271;-77
2023/12/13 06:08:12;;;;;;;19.27;8.80;;;8.50;91.20;;;;;;4985747;28;20913;-77
2023/12/13 06:10:39;;;;;;;17.42;8.35;;;8.50;91.20;;;;;;4988168;28;20129;-77
2023/12/13 06:13:06;;;;;;;17.88;8.55;;;8.50;91.20;;;;;;4978607;28;20046;-78
2023/12/13 06:15:34;;;;;;;18.53;8.47;;;8.50;91.20;;;;;;4987025;28;20042;-77
2023/12/13 06:18:01;;;;;;;17.10;8.90;;;8.50;91.20;;;;;;4986659;28;20266;-77
2023/12/13 06:20:28;;;;;;;17.88;8.13;;;8.50;91.20;;;;;;4989792;28;20490;-77
2023/12/13 06:22:56;;;;;;;17.30;7.95;;;8.50;91.20;;;;;;4991797;28;20701;-77
2023/12/13 06:25:23;;;;;;;18.02;8.38;;;8.50;91.20;;;;;;4988990;28;20054;-77
2023/12/13 06:27:50;;;;;;;19.53;8.87;;;8.50;91.20;;;;;;5009331;28;20435;-77
2023/12/13 06:30:17;;;;;;;17.65;8.18;;;8.50;91.20;;;;;;4988783;28;20259;-77
2023/12/13 06:32:44;;;;;;;17.60;8.13;;;8.50;91.20;;;;;;5005839;28;20065;-77
2023/12/13 06:35:12;;;;;;;18.17;8.50;;;8.50;91.20;;;;;;5005628;28;20055;-77
2023/12/13 06:37:39;;;;;;;17.98;8.90;;;8.50;91.20;;;;;;5003662;28;20607;-77
2023/12/13 06:40:09;;;;;;;18.47;8.30;;;8.50;91.10;;;;;;4987202;28;20100;-77
2023/12/13 06:42:36;;;;;;;14.07;7.57;;;8.50;91.20;;;;;;5005173;28;21112;-77
2023/12/13 06:45:03;;;;;;;14.65;8.00;;;8.50;91.20;;;;;;5006526;28;20062;-77
2023/12/13 06:47:30;;;;;;;18.98;8.80;;;8.50;91.10;;;;;;4971265;28;20055;-77
2023/12/13 06:49:56;;;;;;;18.85;8.18;;;8.50;91.20;;;;;;4982142;28;20043;-77
2023/12/13 06:52:23;;;;;;;15.10;8.03;;;8.50;91.20;;;;;;4987566;28;21581;-77
2023/12/13 06:54:50;;;;;;;15.13;7.82;;;8.50;91.20;;;;;;4999708;28;20305;-77
2023/12/13 06:57:19;;;;;;;16.23;8.20;;;8.50;91.20;;;;;;4988634;28;20061;-77
2023/12/13 06:59:46;;;;;;;17.48;8.35;;;8.50;91.20;;;;;;5005352;28;20123;-77
2023/12/13 07:02:13;;;;;;;15.82;8.30;;;8.50;91.30;;;;;;5016713;28;20129;-77
2023/12/13 07:04:42;;;;;;;15.30;7.80;;;8.50;91.20;;;;;;4986919;28;20046;-77
2023/12/13 07:07:14;;;;;;;16.70;7.88;;;8.50;91.20;;;;;;4990544;28;20672;-78
2023/12/13 07:09:44;;;;;;;17.77;9.05;;;8.50;91.20;;;;;;4989755;28;20074;-77
2023/12/13 07:12:11;;;;;;;15.88;8.13;;;8.50;91.20;;;;;;4990286;28;20142;-77
2023/12/13 07:14:39;;;;;;;15.68;8.32;;;8.50;91.20;;;;;;4990222;28;20050;-77
2023/12/13 07:17:06;;;;;;;15.40;7.63;;;8.50;91.30;;;;;;4989817;28;20047;-77
2023/12/13 07:19:33;;;;;;;15.88;8.05;;;8.50;91.20;;;;;;5005357;28;20750;-78
2023/12/13 07:22:00;;;;;;;15.98;8.07;;;8.50;91.30;;;;;;5003336;28;20061;-76
2023/12/13 07:24:27;;;;;;;15.43;8.20;;;8.60;91.30;;;;;;5007235;28;21015;-77
2023/12/13 07:26:54;;;;;;;16.00;8.10;;;8.60;91.30;;;;;;5005384;28;20061;-76
2023/12/13 07:29:21;;;;;;;15.67;7.93;;;8.60;91.20;;;;;;5002626;28;20096;-78
2023/12/13 07:31:50;;;;;;;16.20;7.93;;;8.60;91.30;;;;;;5006366;28;20289;-77
2023/12/13 07:34:18;;;;;;;15.05;7.80;;;8.60;91.30;;;;;;4997663;28;20042;-77
2023/12/13 07:36:48;;;;;;;18.52;7.85;;;8.60;91.20;;;;;;4986803;28;20054;-77
2023/12/13 07:39:15;;;;;;;13.68;7.60;;;8.60;91.20;;;;;;4990672;28;20145;-78
2023/12/13 07:41:42;;;;;;;16.60;8.67;;;8.60;91.20;;;;;;4988244;28;20062;-77
2023/12/13 07:44:09;;;;;;;15.07;8.00;;;8.60;91.20;;;;;;4990823;28;20269;-78
2023/12/13 07:46:38;;;;;;;16.35;8.20;;;8.60;91.20;;;;;;4986709;28;20518;-76
2023/12/13 07:49:06;;;;;;;15.60;7.85;;;8.60;91.20;;;;;;5008005;28;20605;-77
2023/12/13 07:51:34;;;;;;;15.75;8.10;;;8.60;91.20;;;;;;4990078;28;20448;-76
2023/12/13 07:54:03;;;;;;;16.10;8.20;;;8.60;91.20;;;;;;4989743;28;20499;-79
2023/12/13 07:56:30;;;;;;;14.50;7.88;;;8.60;91.20;;;;;;4973253;28;20282;-79
2023/12/13 07:58:57;;;;;;;15.27;8.48;;;8.60;91.20;;;;;;4989442;28;20058;-79
2023/12/13 08:01:24;;;;;;;14.05;7.55;;;8.60;91.20;;;;;;4990242;28;20579;-78
2023/12/13 08:03:51;;;;;;;16.00;8.40;;;8.60;91.10;;;;;;4990711;28;20055;-78
2023/12/13 08:06:20;;;;;;;14.03;7.40;;;8.60;91.10;;;;;;4990116;28;20055;-78
2023/12/13 08:08:48;;;;;;;15.65;7.55;;;8.60;91.10;;;;;;4990164;28;20266;-78
2023/12/13 08:11:16;;;;;;;14.43;7.88;;;8.60;91.10;;;;;;5008431;28;20078;-78
2023/12/13 08:13:44;;;;;;;16.58;8.32;;;8.60;91.10;;;;;;4967973;28;20047;-78
2023/12/13 08:16:11;;;;;;;15.70;7.63;;;8.60;91.10;;;;;;4990633;28;20595;-78
2023/12/13 08:18:38;;;;;;;16.13;8.63;;;8.60;91.00;;;;;;5022592;28;20053;-77
2023/12/13 08:21:06;;;;;;;14.90;7.35;;;8.60;91.00;;;;;;4998339;28;20329;-77
2023/12/13 08:23:35;;;;;;;17.50;8.05;;;8.60;91.00;;;;;;4988889;28;20081;-77
2023/12/13 08:26:02;;;;;;;17.02;8.65;;;8.60;90.90;;;;;;4988904;28;20979;-77
2023/12/13 08:28:30;;;;;;;18.98;8.07;;;8.60;90.90;;;;;;4995066;28;20732;-76
2023/12/13 08:30:57;;;;;;;18.30;8.40;;;8.60;90.90;;;;;;5006747;28;20066;-76
2023/12/13 08:33:24;;;;;;;15.98;7.68;;;8.60;90.90;;;;;;4989720;28;20716;-77
2023/12/13 08:35:53;;;;;;;17.00;7.55;;;8.60;90.90;;;;;;4984843;28;20056;-76
2023/12/13 08:38:22;;;;;;;14.38;8.18;;;8.60;90.90;;;;;;4989968;28;20054;-76
2023/12/13 08:40:51;;;;;;;15.00;7.90;;;8.60;91.00;;;;;;4982510;28;20757;-76
2023/12/13 08:43:18;;;;;;;15.80;7.70;;;8.60;91.00;;;;;;4977581;28;20057;-76
2023/12/13 08:45:45;;;;;;;18.58;8.05;;;8.60;91.00;;;;;;4975712;28;21134;-76
2023/12/13 08:48:13;;;;;;;18.98;7.93;;;8.60;91.00;;;;;;5000679;28;20055;-76
2023/12/13 08:50:40;;;;;;;16.90;8.10;;;8.60;91.00;;;;;;4980040;28;20452;-76
2023/12/13 08:53:07;;;;;;;17.08;7.75;;;8.60;91.00;;;;;;4981065;28;20054;-76
2023/12/13 08:55:34;;;;;;;19.33;8.20;;;8.60;91.10;;;;;;4998519;28;20062;-77
2023/12/13 08:58:02;;;;;;;16.85;8.00;;;8.60;91.10;;;;;;4991062;28;20255;-77
2023/12/13 09:00:29;;;;;;;19.02;8.30;;;8.60;91.00;;;;;;4988111;28;20059;-77
2023/12/13 09:02:56;;;;;;;15.98;7.88;;;8.70;91.00;;;;;;4988391;28;20094;-77
2023/12/13 09:05:24;;;;;;;17.40;8.27;;;8.70;91.00;;;;;;4970445;28;20057;-76
2023/12/13 09:07:51;;;;;;;18.17;8.27;;;8.70;91.10;;;;;;4987931;28;20051;-77
2023/12/13 09:10:18;;;;;;;16.65;7.65;;;8.70;91.10;;;;;;4993965;28;20360;-78
2023/12/13 09:12:45;;;;;;;16.42;8.18;;;8.70;91.10;;;;;;5007733;28;20056;-76
2023/12/13 09:15:13;;;;;;;16.42;7.68;;;8.70;91.10;;;;;;5003595;28;21059;-77
2023/12/13 09:17:45;;;;;;;17.50;7.75;;;8.70;91.10;;;;;;4989783;28;20230;-77
2023/12/13 09:20:14;;;;;;;17.53;8.20;;;8.70;91.10;;;;;;4989894;28;20054;-77
2023/12/13 09:22:42;;;;;;;17.80;8.05;;;8.80;91.10;;;;;;5022650;28;20250;-77
2023/12/13 09:25:09;;;;;;;15.00;7.45;;;8.80;91.10;;;;;;5007783;28;20050;-77
2023/12/13 09:27:37;;;;;;;16.35;8.30;;;8.80;91.10;;;;;;4989605;28;20504;-77
2023/12/13 09:30:04;;;;;;;20.23;7.78;;;8.80;91.10;;;;;;4989421;28;21000;-77
2023/12/13 09:32:33;;;;;;;16.50;7.80;;;8.80;91.20;;;;;;5004683;28;20054;-78
2023/12/13 09:35:01;;;;;;;15.60;7.50;;;8.80;91.10;;;;;;5005583;28;20665;-76
2023/12/13 09:37:28;;;;;;;15.20;7.60;;;8.80;91.10;;;;;;4997995;28;20406;-77
2023/12/13 09:39:55;;;;;;;18.63;8.80;;;8.80;91.10;;;;;;4997782;28;20067;-76
2023/12/13 09:42:22;;;;;;;18.90;8.30;;;8.80;91.20;;;;;;4996126;28;20081;-76
2023/12/13 09:44:50;;;;;;;16.70;8.53;;;8.80;91.10;;;;;;4978300;28;20218;-76
2023/12/13 09:47:18;;;;;;;18.23;8.15;;;8.80;91.20;;;;;;4999041;28;20762;-76
2023/12/13 09:49:48;;;;;;;18.33;8.40;;;8.80;91.10;;;;;;4975744;28;20114;-76
2023/12/13 09:52:18;;;;;;;16.13;8.02;;;8.80;91.20;;;;;;4973534;28;20178;-77
2023/12/13 09:54:46;;;;;;;18.45;8.48;;;8.80;91.20;;;;;;4993467;28;20105;-76
2023/12/13 09:57:13;;;;;;;17.33;8.33;;;8.90;91.20;;;;;;4996199;28;20047;-78
2023/12/13 09:59:41;;;;;;;15.60;7.50;;;8.90;91.20;;;;;;4970269;28;20288;-77
2023/12/13 10:02:12;;;;;;;16.13;7.45;;;8.90;91.20;;;;;;4992151;28;20141;-77
2023/12/13 10:04:40;;;;;;;16.35;8.35;;;8.90;91.20;;;;;;4992254;28;20049;-77
2023/12/13 10:07:08;;;;;;;17.45;8.40;;;8.90;91.20;;;;;;5010267;28;20061;-77
2023/12/13 10:09:36;;;;;;;16.53;8.73;;;8.90;91.20;;;;;;4991831;28;20051;-76
2023/12/13 10:12:07;;;;;;;16.85;8.00;;;8.90;91.20;;;;;;5001441;28;20281;-77
2023/12/13 10:14:35;;;;;;;18.50;8.45;;;8.90;91.30;;;;;;5004045;28;20394;-76
2023/12/13 10:17:03;;;;;;;15.68;7.97;;;9.00;91.30;;;;;;4999697;28;20836;-77
2023/12/13 10:19:31;;;;;;;16.00;8.15;;;9.00;91.30;;;;;;5009336;28;20046;-77
2023/12/13 10:21:58;;;;;;;17.13;8.03;;;9.00;91.30;;;;;;4993376;28;20062;-76
2023/12/13 10:24:28;;;;;;;18.77;8.23;;;9.00;91.30;;;;;;5014562;28;20273;-76
2023/12/13 10:26:55;;;;;;;18.88;8.90;;;9.00;91.30;;;;;;4999718;28;20062;-76
2023/12/13 10:29:22;;;;;;;17.67;8.05;;;9.00;91.30;;;;;;5001617;28;21052;-76
2023/12/13 10:31:50;;;;;;;17.33;8.30;;;9.00;91.30;;;;;;5003823;28;20835;-76
2023/12/13 10:34:17;;;;;;;17.57;8.87;;;9.00;91.30;;;;;;4998224;28;20077;-76
2023/12/13 10:36:44;;;;;;;18.73;8.20;;;9.00;91.40;;;;;;5006524;28;20254;-76
2023/12/13 10:39:14;;;;;;;18.02;8.23;;;9.00;91.40;;;;;;4989375;28;20058;-77
2023/12/13 10:41:44;;;;;;;16.38;8.25;;;9.00;91.40;;;;;;5025052;28;20050;-76
2023/12/13 10:44:16;;;;;;;19.63;9.48;;;9.00;91.40;;;;;;4992085;28;20522;-77
2023/12/13 10:46:47;;;;;;;17.67;8.50;;;9.10;91.50;;;;;;5024793;28;20047;-77
2023/12/13 10:49:17;;;;;;;19.00;8.43;;;9.10;91.50;;;;;;5019504;28;20952;-76
2023/12/13 10:51:46;;;;;;;16.60;7.78;;;9.10;91.50;;;;;;4990731;28;20058;-77
2023/12/13 10:54:47;;;;;;;19.27;8.07;;;9.10;91.50;;;;;;5005295;28;20065;-77
2023/12/13 10:57:16;;;;;;;16.80;7.80;;;9.20;91.50;;;;;;5061993;28;20083;-77
2023/12/13 10:59:44;;;;;;;15.20;7.50;;;9.20;91.50;;;;;;5048305;28;20533;-75
2023/12/13 11:02:14;;;;;;;17.08;8.13;;;9.20;91.40;;;;;;5048903;28;20269;-76
2023/12/13 11:04:43;;;;;;;17.42;8.30;;;9.20;91.50;;;;;;5048220;28;20065;-73
2023/12/13 11:07:11;;;;;;;17.83;8.38;;;9.20;91.50;;;;;;5047321;28;20546;-75
2023/12/13 11:09:49;;;;;;;15.48;7.72;;;9.20;91.50;;;;;;5054235;28;20422;-75
2023/12/13 11:12:19;;;;;;;15.13;7.63;;;9.20;91.40;;;;;;5045438;28;20045;-75
2023/12/13 11:14:49;;;;;;;13.80;7.07;;;9.20;91.50;;;;;;5044783;28;20280;-75
2023/12/13 11:17:16;;;;;;;17.60;8.10;;;9.20;91.40;;;;;;5063799;28;20077;-75
2023/12/13 11:19:43;;;;;;;13.63;7.25;;;9.20;91.50;;;;;;5048112;28;20060;-75
2023/12/13 11:22:12;;;;;;;15.80;7.40;;;9.20;91.40;;;;;;5049171;28;20061;-74
2023/12/13 11:24:40;;;;;;;15.07;7.53;;;9.30;91.50;;;;;;5045863;28;20616;-75
2023/12/13 11:27:12;;;;;;;17.40;7.05;;;9.20;91.50;;;;;;5046117;28;20777;-75
2023/12/13 11:29:45;;;;;;;17.52;7.75;;;9.30;91.40;;;;;;5048128;28;20053;-75
2023/12/13 11:32:12;;;;;;;18.05;7.90;;;9.30;91.40;;;;;;5059709;28;20542;-75
2023/12/13 11:34:42;;;;;;;15.32;7.55;;;9.30;91.40;;;;;;5032181;28;20528;-75
2023/12/13 11:37:11;;;;;;;15.30;7.83;;;9.30;91.40;;;;;;5041843;28;20594;-75
2023/12/13 11:39:41;;;;;;;17.27;8.07;;;9.40;91.40;;;;;;5041065;28;20828;-75
2023/12/13 11:42:10;;;;;;;17.08;8.70;;;9.30;91.40;;;;;;5062033;28;20127;-74
2023/12/13 11:44:40;;;;;;;20.50;8.30;;;9.40;91.40;;;;;;5045322;28;20045;-75
2023/12/13 11:47:09;;;;;;;17.48;8.05;;;9.40;91.40;;;;;;5047117;28;20494;-74
2023/12/13 11:49:38;;;;;;;19.27;8.43;;;9.40;91.40;;;;;;5046845;28;20056;-75
2023/12/13 11:52:05;;;;;;;21.83;8.93;;;9.40;91.40;;;;;;5048473;28;20253;-75
2023/12/13 11:54:32;;;;;;;18.73;8.57;;;9.40;91.30;;;;;;5048587;28;20087;-75
2023/12/13 11:57:00;;;;;;;18.60;8.45;;;9.40;91.40;;;;;;5047634;28;20057;-74
2023/12/13 11:59:27;;;;;;;18.52;8.93;;;9.40;91.40;;;;;;5046650;28;20053;-74
2023/12/13 12:01:55;;;;;;;19.50;8.37;;;9.40;91.30;;;;;;5063934;28;20422;-71
2023/12/13 12:04:23;;;;;;;20.48;8.80;;;9.40;91.30;;;;;;5029774;28;20278;-72
2023/12/13 12:06:52;;;;;;;19.85;8.73;;;9.40;91.30;;;;;;5047174;28;20049;-72
2023/12/13 12:09:22;;;;;;;20.05;8.50;;;9.40;91.30;;;;;;5045905;28;20057;-73
2023/12/13 12:11:53;;;;;;;20.77;8.90;;;9.40;91.20;;;;;;5045557;28;20049;-74
2023/12/13 12:14:20;;;;;;;21.90;9.17;;;9.40;91.30;;;;;;5040240;28;20129;-73
2023/12/13 12:16:46;;;;;;;19.20;7.97;;;9.40;91.20;;;;;;5044644;28;21131;-73
2023/12/13 12:19:15;;;;;;;20.05;9.13;;;9.40;91.20;;;;;;5035912;28;20060;-73
2023/12/13 12:21:43;;;;;;;19.55;8.65;;;9.40;91.20;;;;;;5054110;28;20594;-73
2023/12/13 12:24:11;;;;;;;20.38;8.65;;;9.40;91.20;;;;;;5024074;28;20055;-73
2023/12/13 12:26:38;;;;;;;19.33;8.90;;;9.40;91.20;;;;;;5062751;28;20549;-74
2023/12/13 12:29:05;;;;;;;19.90;8.65;;;9.50;91.20;;;;;;5046036;28;21189;-74
2023/12/13 12:31:32;;;;;;;19.48;8.27;;;9.50;91.20;;;;;;5062793;28;20041;-73
2023/12/13 12:34:00;;;;;;;20.85;8.93;;;9.50;91.20;;;;;;5047687;28;20053;-73
2023/12/13 12:36:28;;;;;;;19.30;8.80;;;9.50;91.20;;;;;;5046893;28;20042;-73
2023/12/13 12:38:56;;;;;;;20.57;9.67;;;9.50;91.20;;;;;;5045186;28;20053;-73
2023/12/13 12:41:23;;;;;;;21.00;9.20;;;9.50;91.20;;;;;;5062823;28;20269;-74
2023/12/13 12:43:50;;;;;;;25.23;9.73;;;9.50;91.20;;;;;;5046185;28;20053;-73
2023/12/13 12:46:18;;;;;;;17.75;9.27;;;9.60;91.20;;;;;;5046016;28;20157;-73
2023/12/13 12:48:45;;;;;;;19.55;8.90;;;9.60;91.20;;;;;;5046519;28;20715;-73
2023/12/13 12:51:13;;;;;;;18.80;8.10;;;9.60;91.20;;;;;;5046865;28;20084;-73